createdAt,value
2019-03-30T00:00:31.778Z,99.90
2019-03-30T00:03:01.558Z,99.90
2019-03-30T00:05:31.191Z,99.90
2019-03-30T00:08:00.909Z,99.90
2019-03-30T00:10:30.545Z,99.90
2019-03-30T00:13:00.351Z,99.90
2019-03-30T00:15:29.970Z,99.90
2019-03-30T00:17:59.647Z,99.90
2019-03-30T00:20:29.341Z,99.90
2019-03-30T00:22:58.995Z,99.90
2019-03-30T00:25:28.617Z,99.90
2019-03-30T00:27:58.350Z,99.90
2019-03-30T00:30:27.976Z,99.90
2019-03-30T00:32:57.632Z,99.90
2019-03-30T00:35:27.250Z,99.90
2019-03-30T00:37:56.896Z,99.90
2019-03-30T00:40:26.758Z,99.90
2019-03-30T00:42:56.639Z,99.90
2019-03-30T00:45:26.255Z,99.90
2019-03-30T00:47:55.909Z,99.90
2019-03-30T00:50:25.557Z,99.90
2019-03-30T00:52:55.233Z,99.90
2019-03-30T00:55:24.889Z,99.90
2019-03-30T00:57:54.599Z,99.90
2019-03-30T01:00:24.345Z,99.90
2019-03-30T01:02:54.058Z,99.90
2019-03-30T01:05:23.700Z,99.90
2019-03-30T01:07:53.320Z,99.90
2019-03-30T01:10:23.117Z,99.90
2019-03-30T01:12:52.944Z,99.90
2019-03-30T01:15:22.596Z,99.90
2019-03-30T01:17:52.225Z,99.90
2019-03-30T01:20:21.873Z,99.90
2019-03-30T01:22:51.497Z,99.90
2019-03-30T01:25:21.145Z,99.90
2019-03-30T01:27:50.773Z,99.90
2019-03-30T01:30:23.213Z,99.90
2019-03-30T01:32:51.785Z,99.90
2019-03-30T01:35:21.546Z,99.90
2019-03-30T01:37:51.353Z,99.90
2019-03-30T01:40:21.074Z,99.90
2019-03-30T01:42:50.718Z,99.90
2019-03-30T01:45:20.371Z,99.90
2019-03-30T01:47:50.058Z,99.90
2019-03-30T01:50:19.717Z,99.90
2019-03-30T01:52:49.446Z,99.90
2019-03-30T01:55:19.089Z,99.90
2019-03-30T01:57:50.906Z,99.90
2019-03-30T02:00:20.617Z,99.90
2019-03-30T02:02:50.331Z,99.90
2019-03-30T02:05:20.062Z,99.90
2019-03-30T02:07:49.697Z,99.90
2019-03-30T02:10:30.957Z,99.90
2019-03-30T02:13:01.690Z,99.90
2019-03-30T02:15:31.341Z,99.90
2019-03-30T02:18:03.793Z,99.90
2019-03-30T02:20:41.833Z,99.90
2019-03-30T02:23:11.734Z,99.90
2019-03-30T02:25:41.630Z,99.90
2019-03-30T02:28:11.789Z,99.90
2019-03-30T02:30:41.679Z,99.90
2019-03-30T02:33:11.301Z,99.90
2019-03-30T02:35:41.026Z,99.90
2019-03-30T02:38:10.755Z,99.90
2019-03-30T02:40:40.474Z,99.90
2019-03-30T02:43:10.136Z,99.90
2019-03-30T02:45:39.778Z,99.90
2019-03-30T02:48:09.476Z,99.90
2019-03-30T02:50:49.316Z,99.90
2019-03-30T02:53:10.428Z,99.90
2019-03-30T02:55:40.084Z,99.90
2019-03-30T02:58:09.784Z,99.90
2019-03-30T03:00:39.509Z,99.90
2019-03-30T03:03:09.209Z,99.90
2019-03-30T03:05:38.864Z,99.90
2019-03-30T03:08:08.489Z,99.90
2019-03-30T03:10:38.210Z,99.90
2019-03-30T03:13:09.345Z,99.90
2019-03-30T03:15:39.003Z,99.90
2019-03-30T03:18:08.627Z,99.90
2019-03-30T03:20:38.275Z,99.90
2019-03-30T03:23:07.921Z,99.90
2019-03-30T03:25:37.573Z,99.90
2019-03-30T03:28:07.202Z,99.90
2019-03-30T03:30:36.859Z,99.90
2019-03-30T03:33:06.554Z,99.90
2019-03-30T03:35:36.225Z,99.90
2019-03-30T03:38:05.861Z,99.90
2019-03-30T03:40:35.732Z,99.90
2019-03-30T03:43:05.353Z,99.90
2019-03-30T03:45:35.007Z,99.90
2019-03-30T03:48:04.705Z,99.90
2019-03-30T03:50:42.678Z,99.90
2019-03-30T03:53:16.983Z,99.90
2019-03-30T03:55:46.967Z,99.90
2019-03-30T03:58:17.930Z,99.90
2019-03-30T04:00:47.661Z,99.90
2019-03-30T04:03:18.240Z,99.90
2019-03-30T04:05:48.425Z,99.90
2019-03-30T04:08:18.230Z,99.90
2019-03-30T04:10:48.212Z,99.90
2019-03-30T04:13:17.930Z,99.90
2019-03-30T04:15:47.715Z,99.90
2019-03-30T04:18:18.088Z,99.90
2019-03-30T04:20:47.735Z,99.90
2019-03-30T04:23:17.606Z,99.90
2019-03-30T04:25:47.486Z,99.90
2019-03-30T04:28:17.192Z,99.90
2019-03-30T04:30:46.838Z,99.90
2019-03-30T04:33:16.467Z,99.90
2019-03-30T04:35:46.125Z,99.90
2019-03-30T04:38:15.751Z,99.90
2019-03-30T04:40:45.438Z,99.90
2019-03-30T04:43:15.206Z,99.90
2019-03-30T04:45:44.850Z,99.90
2019-03-30T04:48:14.471Z,99.90
2019-03-30T04:50:44.121Z,99.90
2019-03-30T04:53:13.752Z,99.90
2019-03-30T04:55:43.404Z,99.90
2019-03-30T04:58:13.037Z,99.90
2019-03-30T05:00:42.686Z,99.90
2019-03-30T05:03:12.446Z,99.90
2019-03-30T05:05:43.289Z,99.90
2019-03-30T05:08:13.026Z,99.90
2019-03-30T05:10:42.744Z,99.90
2019-03-30T05:13:12.409Z,99.90
2019-03-30T05:15:42.067Z,99.90
2019-03-30T05:18:11.700Z,99.90
2019-03-30T05:20:41.435Z,99.90
2019-03-30T05:23:11.142Z,99.90
2019-03-30T05:25:40.805Z,99.90
2019-03-30T05:28:10.437Z,99.90
2019-03-30T05:30:40.060Z,99.90
2019-03-30T05:33:09.864Z,99.90
2019-03-30T05:35:39.494Z,99.90
2019-03-30T05:38:09.141Z,99.90
2019-03-30T05:40:38.771Z,99.90
2019-03-30T05:43:08.628Z,99.90
2019-03-30T05:45:38.265Z,99.90
2019-03-30T05:48:07.926Z,99.90
2019-03-30T05:50:37.557Z,99.90
2019-03-30T05:53:07.230Z,99.90
2019-03-30T05:55:36.862Z,99.90
2019-03-30T05:58:06.505Z,99.90
2019-03-30T06:00:36.134Z,99.90
2019-03-30T06:03:05.782Z,99.90
2019-03-30T06:05:35.484Z,99.90
2019-03-30T06:08:05.285Z,99.90
2019-03-30T06:10:34.912Z,99.90
2019-03-30T06:13:04.779Z,99.90
2019-03-30T06:15:35.397Z,99.90
2019-03-30T06:18:05.049Z,99.90
2019-03-30T06:20:34.678Z,99.90
2019-03-30T06:23:04.329Z,99.90
2019-03-30T06:25:33.963Z,99.90
2019-03-30T06:28:03.606Z,99.90
2019-03-30T06:30:33.369Z,99.90
2019-03-30T06:33:03.169Z,99.90
2019-03-30T06:35:32.793Z,99.90
2019-03-30T06:38:02.451Z,99.90
2019-03-30T06:40:32.085Z,99.90
2019-03-30T06:43:01.729Z,99.90
2019-03-30T06:45:31.353Z,99.90
2019-03-30T06:48:01.014Z,99.90
2019-03-30T06:50:30.650Z,99.90
2019-03-30T06:53:00.298Z,99.90
2019-03-30T06:55:29.997Z,99.90
2019-03-30T06:57:59.723Z,99.90
2019-03-30T07:00:33.988Z,99.90
2019-03-30T07:03:05.272Z,99.90
2019-03-30T07:05:41.971Z,99.90
2019-03-30T07:08:16.409Z,99.90
2019-03-30T07:10:46.794Z,99.90
2019-03-30T07:13:16.958Z,99.90
2019-03-30T07:15:48.813Z,99.90
2019-03-30T07:18:19.218Z,99.90
2019-03-30T07:20:49.108Z,99.90
2019-03-30T07:23:19.063Z,99.90
2019-03-30T07:25:48.753Z,99.90
2019-03-30T07:28:18.489Z,99.90
2019-03-30T07:30:48.102Z,99.90
2019-03-30T07:33:17.757Z,99.90
2019-03-30T07:35:47.383Z,99.90
2019-03-30T07:38:17.105Z,99.90
2019-03-30T07:40:46.885Z,99.90
2019-03-30T07:43:16.522Z,99.90
2019-03-30T07:45:46.223Z,99.90
2019-03-30T07:48:15.866Z,99.90
2019-03-30T07:50:45.504Z,99.90
2019-03-30T07:53:25.716Z,99.90
2019-03-30T07:55:46.462Z,99.90
2019-03-30T07:58:16.117Z,99.90
2019-03-30T08:00:45.752Z,99.90
2019-03-30T08:03:15.414Z,99.90
2019-03-30T08:05:45.049Z,99.90
2019-03-30T08:08:14.709Z,99.90
2019-03-30T08:10:44.412Z,99.90
2019-03-30T08:13:14.151Z,99.90
2019-03-30T08:15:43.789Z,99.90
2019-03-30T08:18:13.458Z,99.90
2019-03-30T08:20:43.121Z,99.90
2019-03-30T08:23:12.846Z,98.70
2019-03-30T08:25:42.502Z,99.90
2019-03-30T08:28:12.140Z,96.40
2019-03-30T08:30:41.804Z,98.60
2019-03-30T08:33:11.441Z,93.10
2019-03-30T08:35:41.107Z,93.10
2019-03-30T08:38:10.742Z,96.30
2019-03-30T08:40:40.413Z,93.90
2019-03-30T08:43:10.414Z,93.60
2019-03-30T08:45:40.109Z,92.60
2019-03-30T08:48:09.736Z,90.00
2019-03-30T08:50:39.398Z,93.30
2019-03-30T08:53:09.042Z,91.10
2019-03-30T08:55:38.760Z,92.40
2019-03-30T08:58:08.398Z,93.10
2019-03-30T09:00:39.998Z,93.20
2019-03-30T09:03:09.812Z,88.80
2019-03-30T09:05:39.731Z,83.70
2019-03-30T09:08:09.437Z,82.20
2019-03-30T09:10:39.094Z,82.60
2019-03-30T09:13:08.730Z,79.80
2019-03-30T09:15:38.391Z,90.20
2019-03-30T09:18:08.026Z,85.10
2019-03-30T09:20:37.698Z,87.00
2019-03-30T09:23:07.387Z,91.80
2019-03-30T09:25:37.113Z,88.90
2019-03-30T09:28:06.895Z,91.00
2019-03-30T09:30:36.617Z,84.80
2019-03-30T09:33:06.419Z,81.90
2019-03-30T09:35:36.077Z,83.60
2019-03-30T09:38:05.713Z,79.90
2019-03-30T09:40:35.449Z,87.30
2019-03-30T09:43:05.182Z,84.40
2019-03-30T09:45:34.939Z,81.50
2019-03-30T09:48:04.820Z,90.20
2019-03-30T09:50:34.478Z,81.70
2019-03-30T09:53:04.365Z,82.50
2019-03-30T09:55:34.280Z,74.80
2019-03-30T09:58:03.989Z,88.40
2019-03-30T10:00:33.653Z,87.20
2019-03-30T10:03:06.036Z,79.80
2019-03-30T10:05:34.777Z,79.60
2019-03-30T10:08:04.549Z,76.20
2019-03-30T10:10:34.277Z,78.80
2019-03-30T10:13:04.097Z,75.20
2019-03-30T10:15:33.823Z,76.00
2019-03-30T10:18:03.449Z,74.50
2019-03-30T10:20:33.177Z,70.80
2019-03-30T10:23:02.815Z,72.20
2019-03-30T10:25:32.476Z,73.00
2019-03-30T10:28:02.112Z,67.30
2019-03-30T10:30:31.771Z,70.60
2019-03-30T10:33:01.499Z,67.60
2019-03-30T10:35:31.161Z,69.60
2019-03-30T10:38:01.030Z,62.70
2019-03-30T10:40:30.691Z,65.60
2019-03-30T10:43:00.314Z,67.30
2019-03-30T10:45:29.965Z,60.30
2019-03-30T10:47:59.736Z,59.60
2019-03-30T10:50:29.397Z,63.00
2019-03-30T10:52:59.183Z,61.00
2019-03-30T10:55:28.837Z,59.40
2019-03-30T10:57:58.918Z,57.00
2019-03-30T11:00:37.233Z,57.70
2019-03-30T11:03:07.269Z,59.20
2019-03-30T11:05:40.751Z,57.70
2019-03-30T11:08:22.883Z,57.70
2019-03-30T11:10:52.541Z,58.20
2019-03-30T11:13:22.336Z,56.40
2019-03-30T11:15:52.005Z,53.40
2019-03-30T11:18:21.634Z,54.10
2019-03-30T11:20:51.262Z,52.40
2019-03-30T11:23:20.917Z,53.30
2019-03-30T11:25:50.626Z,55.00
2019-03-30T11:28:20.277Z,53.00
2019-03-30T11:30:49.981Z,52.70
2019-03-30T11:33:32.325Z,52.80
2019-03-30T11:36:01.953Z,52.40
2019-03-30T11:38:31.605Z,51.50
2019-03-30T11:41:01.237Z,51.90
2019-03-30T11:43:31.045Z,52.60
2019-03-30T11:46:00.771Z,52.10
2019-03-30T11:48:30.428Z,49.70
2019-03-30T11:51:00.061Z,51.70
2019-03-30T11:53:29.861Z,51.30
2019-03-30T11:55:59.499Z,50.80
2019-03-30T11:58:29.158Z,49.00
2019-03-30T12:00:58.790Z,48.50
2019-03-30T12:03:28.597Z,46.90
2019-03-30T12:05:58.233Z,51.00
2019-03-30T12:08:27.906Z,49.40
2019-03-30T12:10:57.553Z,49.30
2019-03-30T12:13:27.330Z,48.30
2019-03-30T12:15:56.911Z,48.40
2019-03-30T12:18:26.567Z,48.20
2019-03-30T12:20:56.235Z,46.90
2019-03-30T12:23:25.950Z,46.20
2019-03-30T12:25:55.579Z,45.00
2019-03-30T12:28:25.241Z,43.50
2019-03-30T12:30:54.860Z,44.80
2019-03-30T12:33:24.581Z,44.90
2019-03-30T12:35:54.216Z,41.00
2019-03-30T12:38:23.870Z,41.60
2019-03-30T12:40:53.570Z,38.90
2019-03-30T12:43:23.470Z,38.90
2019-03-30T12:45:53.097Z,39.30
2019-03-30T12:48:22.759Z,40.70
2019-03-30T12:50:52.385Z,39.90
2019-03-30T12:53:22.053Z,39.70
2019-03-30T12:55:51.682Z,40.90
2019-03-30T12:58:21.338Z,41.90
2019-03-30T13:00:50.969Z,40.50
2019-03-30T13:03:20.678Z,40.50
2019-03-30T13:05:50.309Z,39.10
2019-03-30T13:08:19.969Z,41.20
2019-03-30T13:10:49.610Z,40.60
2019-03-30T13:13:19.306Z,41.50
2019-03-30T13:15:48.937Z,40.40
2019-03-30T13:18:18.601Z,39.70
2019-03-30T13:20:48.233Z,44.30
2019-03-30T13:23:18.599Z,43.80
2019-03-30T13:26:02.473Z,44.50
2019-03-30T13:28:20.142Z,44.00
2019-03-30T13:30:49.845Z,44.40
2019-03-30T13:33:19.841Z,42.80
2019-03-30T13:35:49.477Z,42.50
2019-03-30T13:38:20.731Z,42.40
2019-03-30T13:40:50.468Z,41.40
2019-03-30T13:43:20.174Z,44.00
2019-03-30T13:45:49.881Z,41.00
2019-03-30T13:48:19.546Z,41.60
2019-03-30T13:50:49.197Z,42.10
2019-03-30T13:53:18.832Z,42.10
2019-03-30T13:55:48.486Z,41.70
2019-03-30T13:58:18.427Z,41.70
2019-03-30T14:00:48.018Z,42.70
2019-03-30T14:03:17.775Z,42.30
2019-03-30T14:05:47.405Z,42.50
2019-03-30T14:08:17.062Z,42.40
2019-03-30T14:10:55.850Z,41.70
2019-03-30T14:13:25.624Z,41.30
2019-03-30T14:15:55.254Z,41.20
2019-03-30T14:18:24.916Z,42.40
2019-03-30T14:20:54.552Z,41.10
2019-03-30T14:23:24.226Z,41.70
2019-03-30T14:25:54.022Z,41.40
2019-03-30T14:28:23.697Z,42.10
2019-03-30T14:30:53.339Z,42.10
2019-03-30T14:33:23.085Z,41.60
2019-03-30T14:35:52.747Z,40.10
2019-03-30T14:38:22.382Z,39.80
2019-03-30T14:40:52.038Z,40.20
2019-03-30T14:43:21.674Z,41.90
2019-03-30T14:45:51.332Z,41.30
2019-03-30T14:48:20.959Z,40.10
2019-03-30T14:50:50.622Z,38.60
2019-03-30T14:53:20.374Z,40.20
2019-03-30T14:55:50.193Z,40.40
2019-03-30T14:58:19.911Z,41.30
2019-03-30T15:00:49.586Z,42.20
2019-03-30T15:03:21.885Z,40.80
2019-03-30T15:05:51.546Z,40.90
2019-03-30T15:08:21.182Z,41.10
2019-03-30T15:10:51.402Z,41.90
2019-03-30T15:13:21.106Z,42.20
2019-03-30T15:15:50.762Z,41.60
2019-03-30T15:18:20.405Z,40.00
2019-03-30T15:20:50.057Z,40.30
2019-03-30T15:23:19.788Z,40.60
2019-03-30T15:25:49.449Z,39.70
2019-03-30T15:28:19.223Z,39.90
2019-03-30T15:30:49.013Z,40.90
2019-03-30T15:33:18.653Z,40.60
2019-03-30T15:35:48.414Z,41.40
2019-03-30T15:38:18.045Z,41.60
2019-03-30T15:40:56.235Z,40.60
2019-03-30T15:43:37.513Z,40.30
2019-03-30T15:45:57.232Z,40.00
2019-03-30T15:48:28.282Z,39.20
2019-03-30T15:50:58.130Z,41.20
2019-03-30T15:53:28.212Z,39.20
2019-03-30T15:55:57.869Z,39.80
2019-03-30T15:58:27.561Z,38.80
2019-03-30T16:00:57.286Z,38.80
2019-03-30T16:03:27.020Z,38.60
2019-03-30T16:05:56.743Z,37.30
2019-03-30T16:08:26.542Z,36.80
2019-03-30T16:10:56.197Z,36.60
2019-03-30T16:13:26.021Z,36.90
2019-03-30T16:15:55.686Z,36.70
2019-03-30T16:18:25.317Z,37.40
2019-03-30T16:20:54.974Z,37.50
2019-03-30T16:23:24.609Z,37.10
2019-03-30T16:25:54.523Z,36.90
2019-03-30T16:28:24.232Z,36.80
2019-03-30T16:30:54.224Z,35.60
2019-03-30T16:33:24.014Z,36.00
2019-03-30T16:35:53.673Z,35.40
2019-03-30T16:38:23.304Z,36.50
2019-03-30T16:40:52.946Z,37.80
2019-03-30T16:43:22.883Z,35.80
2019-03-30T16:45:52.508Z,35.60
2019-03-30T16:48:22.171Z,36.00
2019-03-30T16:50:51.800Z,35.80
2019-03-30T16:53:21.598Z,36.40
2019-03-30T16:55:51.806Z,37.40
2019-03-30T16:58:21.481Z,38.30
2019-03-30T17:00:56.730Z,40.50
2019-03-30T17:03:22.415Z,39.00
2019-03-30T17:05:52.046Z,39.70
2019-03-30T17:08:21.705Z,39.50
2019-03-30T17:10:51.714Z,38.00
2019-03-30T17:13:21.418Z,38.40
2019-03-30T17:15:51.053Z,40.90
2019-03-30T17:18:20.733Z,41.90
2019-03-30T17:20:50.353Z,46.40
2019-03-30T17:23:20.141Z,50.50
2019-03-30T17:25:49.773Z,49.80
2019-03-30T17:28:19.502Z,49.30
2019-03-30T17:30:49.139Z,49.60
2019-03-30T17:33:38.221Z,50.20
2019-03-30T17:36:07.849Z,50.90
2019-03-30T17:38:37.501Z,51.60
2019-03-30T17:41:07.125Z,51.80
2019-03-30T17:43:56.209Z,51.40
2019-03-30T17:46:25.825Z,51.90
2019-03-30T17:48:55.481Z,53.30
2019-03-30T17:51:25.101Z,55.60
2019-03-30T17:53:54.837Z,57.00
2019-03-30T17:56:24.573Z,57.00
2019-03-30T17:58:54.238Z,57.50
2019-03-30T18:01:23.881Z,58.80
2019-03-30T18:03:53.577Z,59.20
2019-03-30T18:06:23.207Z,64.30
2019-03-30T18:08:52.860Z,66.30
2019-03-30T18:11:22.485Z,66.00
2019-03-30T18:13:52.198Z,66.60
2019-03-30T18:16:22.516Z,66.20
2019-03-30T18:18:52.407Z,64.00
2019-03-30T18:21:22.029Z,66.50
2019-03-30T18:23:51.754Z,70.20
2019-03-30T18:26:21.377Z,79.60
2019-03-30T18:28:51.025Z,84.50
2019-03-30T18:31:20.821Z,85.80
2019-03-30T18:33:50.901Z,80.90
2019-03-30T18:36:20.797Z,79.40
2019-03-30T18:38:50.987Z,80.90
2019-03-30T18:41:20.697Z,88.20
2019-03-30T18:43:50.673Z,90.50
2019-03-30T18:46:20.371Z,88.10
2019-03-30T18:48:50.086Z,84.50
2019-03-30T18:51:19.785Z,84.80
2019-03-30T18:53:49.921Z,82.50
2019-03-30T18:56:19.545Z,81.90
2019-03-30T18:58:49.194Z,83.30
2019-03-30T19:01:18.822Z,86.20
2019-03-30T19:03:48.472Z,84.80
2019-03-30T19:06:18.098Z,89.20
2019-03-30T19:08:47.750Z,89.60
2019-03-30T19:11:17.377Z,86.90
2019-03-30T19:13:47.075Z,89.20
2019-03-30T19:16:16.786Z,90.20
2019-03-30T19:18:46.445Z,89.80
2019-03-30T19:21:16.073Z,86.10
2019-03-30T19:23:48.751Z,91.60
2019-03-30T19:26:18.377Z,93.80
2019-03-30T19:28:56.241Z,92.20
2019-03-30T19:31:19.264Z,94.70
2019-03-30T19:33:49.225Z,95.00
2019-03-30T19:36:18.856Z,97.00
2019-03-30T19:38:48.577Z,98.00
2019-03-30T19:41:18.197Z,95.30
2019-03-30T19:43:48.033Z,92.50
2019-03-30T19:46:17.718Z,90.70
2019-03-30T19:48:47.366Z,92.40
2019-03-30T19:51:17.049Z,97.40
2019-03-30T19:53:46.789Z,98.20
2019-03-30T19:56:16.412Z,96.00
2019-03-30T19:58:46.052Z,96.00
2019-03-30T20:01:15.765Z,96.50
2019-03-30T20:03:45.388Z,96.20
2019-03-30T20:06:15.099Z,94.80
2019-03-30T20:08:44.717Z,96.30
2019-03-30T20:11:14.362Z,98.40
2019-03-30T20:13:44.116Z,99.30
2019-03-30T20:16:13.762Z,98.90
2019-03-30T20:18:43.387Z,97.10
2019-03-30T20:21:13.018Z,98.60
2019-03-30T20:23:42.635Z,98.00
2019-03-30T20:26:12.423Z,98.10
2019-03-30T20:28:42.043Z,97.40
2019-03-30T20:31:11.790Z,97.30
2019-03-30T20:33:41.489Z,96.80
2019-03-30T20:36:11.137Z,97.60
2019-03-30T20:38:40.767Z,98.20
2019-03-30T20:41:10.413Z,99.80
2019-03-30T20:43:40.122Z,99.90
2019-03-30T20:46:09.770Z,99.90
2019-03-30T20:48:39.404Z,99.90
2019-03-30T20:51:09.051Z,99.90
2019-03-30T20:53:38.749Z,99.90
2019-03-30T20:56:08.394Z,99.90
2019-03-30T20:58:38.013Z,99.90
2019-03-30T21:01:07.805Z,99.90
2019-03-30T21:03:37.585Z,99.90
2019-03-30T21:06:07.231Z,99.90
2019-03-30T21:08:36.849Z,99.90
2019-03-30T21:11:06.494Z,99.90
2019-03-30T21:13:36.210Z,99.90
2019-03-30T21:16:05.931Z,99.90
2019-03-30T21:18:35.549Z,99.90
2019-03-30T21:21:08.768Z,99.90
2019-03-30T21:23:36.558Z,99.90
2019-03-30T21:26:06.338Z,99.90
2019-03-30T21:28:35.965Z,99.90
2019-03-30T21:31:05.681Z,99.90
2019-03-30T21:33:35.304Z,99.90
2019-03-30T21:36:05.090Z,99.90
2019-03-30T21:38:34.718Z,99.90
2019-03-30T21:41:04.429Z,99.90
2019-03-30T21:43:34.144Z,99.90
2019-03-30T21:46:03.865Z,99.90
2019-03-30T21:48:33.493Z,99.90
2019-03-30T21:51:03.133Z,99.90
2019-03-30T21:53:32.778Z,99.90
2019-03-30T21:56:02.443Z,99.90
2019-03-30T21:58:32.057Z,99.90
2019-03-30T22:01:01.712Z,99.90
2019-03-30T22:03:31.413Z,99.90
2019-03-30T22:06:01.153Z,99.90
2019-03-30T22:08:30.785Z,99.90
2019-03-30T22:11:00.425Z,99.90
2019-03-30T22:13:30.050Z,99.90
2019-03-30T22:15:59.702Z,99.90
2019-03-30T22:18:29.330Z,99.90
2019-03-30T22:20:58.975Z,99.90
2019-03-30T22:23:28.679Z,99.90
2019-03-30T22:25:58.326Z,99.90
2019-03-30T22:28:27.953Z,99.90
2019-03-30T22:30:57.600Z,99.90
2019-03-30T22:33:30.696Z,99.90
2019-03-30T22:35:58.484Z,99.90
2019-03-30T22:38:28.109Z,99.90
2019-03-30T22:40:57.758Z,99.90
2019-03-30T22:43:27.469Z,99.90
2019-03-30T22:45:57.113Z,99.90
2019-03-30T22:48:26.741Z,99.90
2019-03-30T22:50:56.398Z,99.90
2019-03-30T22:53:26.018Z,99.90
2019-03-30T22:55:55.677Z,99.90
2019-03-30T22:58:25.297Z,99.90
2019-03-30T23:01:01.849Z,99.90
2019-03-30T23:03:31.501Z,99.90
2019-03-30T23:06:01.141Z,99.90
2019-03-30T23:08:30.771Z,99.90
2019-03-30T23:11:00.414Z,99.90
2019-03-30T23:13:30.229Z,99.90
2019-03-30T23:16:00.309Z,99.90
2019-03-30T23:18:30.010Z,99.90
2019-03-30T23:20:59.655Z,99.90
2019-03-30T23:23:29.371Z,99.90
2019-03-30T23:25:59.017Z,99.90
2019-03-30T23:28:28.645Z,99.90
2019-03-30T23:30:58.297Z,99.90
2019-03-30T23:33:27.915Z,99.90
2019-03-30T23:35:57.565Z,99.90
2019-03-30T23:38:27.185Z,99.90
2019-03-30T23:40:56.810Z,99.90
2019-03-30T23:43:26.562Z,99.90
2019-03-30T23:45:56.185Z,99.90
2019-03-30T23:48:25.845Z,99.90
2019-03-30T23:50:55.467Z,99.90
2019-03-30T23:53:25.113Z,99.90
2019-03-30T23:55:54.734Z,99.90
2019-03-30T23:58:24.381Z,99.90
